NEODyS-2

Near Earth Objects - Dynamic Site
NEODyS ∴ Observatories ∴ Site 691 ∴ Obs & residuals
Contact »
691  ▹ 
OBSERVATIONS AND RESIDUALS

691-Steward Observatory, Kitt Peak-Spacewatch

Detections | Residuals | Detections & Residuals

[1-200] [201-400] [401-600] [601-800] [801-1000] [1001-1200] [1201-1400] [1401-1600] [1601-1800] [1801-2000] [2001-2200] [2201-2400] [2401-2600] [2601-2800] [2801-3000] [3001-3200] [3201-3400] [3401-3600] [3601-3800] [3801-4000] [4001-4200] [4201-4400] [4401-4600] [4601-4800] [4801-5000] [5001-5200] [5201-5400] [5401-5600] [5601-5800] [5801-6000] [6001-6200] [6201-6400] [6401-6600] [6601-6800] [6801-7000] [7001-7200] [7201-7400] [7401-7600] [7601-7800] [7801-8000] [8001-8200] [8201-8400] [8401-8600] [8601-8800] [8801-9000] [9001-9200] [9201-9400] [9401-9600] [9601-9800] [9801-10000] [10001-10200] [10201-10400] [10401-10600] [10601-10800] [10801-11000] [11001-11200] [11201-11400] [11401-11600] [11601-11800] [11801-12000] [12001-12200] [12201-12400] [12401-12600] [12601-12800] [12801-13000] [13001-13200] [13201-13400] [13401-13600] [13601-13800] [13801-14000] [14001-14200] [14201-14400] [14401-14600] [14601-14800] [14801-15000] [15001-15200] [15201-15400] [15401-15600] [15601-15800] [15801-16000] [16001-16200] [16201-16400] [16401-16600] [16601-16800] [16801-17000] [17001-17200] [17201-17400] [17401-17600] [17601-17800] [17801-18000] [18001-18200] [18201-18400] [18401-18600] [18601-18800] [18801-19000] [19001-19200] [19201-19400] [19401-19600] [19601-19800] [19801-20000] [20001-20200] [20201-20400] [20401-20600] [20601-20800] [20801-21000] [21001-21200] [21201-21400] [21401-21600] [21601-21800] [21801-22000] [22001-22200] [22201-22400] [22401-22600] [22601-22800] [22801-23000] [23001-23200] [23201-23400] [23401-23600] [23601-23800] [23801-24000] [24001-24200] [24201-24400] [24401-24600] [24601-24800] [24801-25000] [25001-25200] [25201-25400] [25401-25600] [25601-25800] [25801-26000] [26001-26200] [26201-26400] [26401-26600] [26601-26800] [26801-27000] [27001-27200] [27201-27400] [27401-27600] [27601-27800] [27801-28000] [28001-28200] [28201-28400] [28401-28600] [28601-28800] [28801-29000] [29001-29200] [29201-29400] [29401-29600] [29601-29800] [29801-30000] [30001-30200] [30201-30400] [30401-30600] [30601-30800] [30801-31000] [31001-31200] [31201-31400] [31401-31600] [31601-31800] [31801-32000] [32001-32200] [32201-32400] [32401-32600] [32601-32800] [32801-33000] [33001-33200] [33201-33400] [33401-33600] [33601-33800] [33801-34000] [34001-34200] [34201-34400] [34401-34600] [34601-34800] [34801-35000] [35001-35200] [35201-35400] [35401-35600] [35601-35800] [35801-36000] [36001-36200] [36201-36400] [36401-36600] [36601-36800] [36801-37000] [37001-37200] [37201-37400] [37401-37600] [37601-37800] [37801-38000] [38001-38200] [38201-38400] [38401-38600] [38601-38800] [38801-39000] [39001-39200] [39201-39400] [39401-39600] [39601-39800] [39801-40000] [40001-40200] [40201-40400] [40401-40600] [40601-40800] [40801-41000] [41001-41200] [41201-41400] [41401-41600] [41601-41800] [41801-42000] [42001-42200] [42201-42400] [42401-42600] [42601-42800] [42801-43000] [43001-43200] [43201-43400] [43401-43600] [43601-43800] [43801-44000] [44001-44200] [44201-44400] [44401-44600] [44601-44800] [44801-45000] [45001-45200] [45201-45400] [45401-45600] [45601-45800] [45801-46000] [46001-46200] [46201-46400] [46401-46600] [46601-46800] [46801-47000] [47001-47200] [47201-47400] [47401-47600] [47601-47800] [47801-48000] [48001-48200] [48201-48400] [48401-48600] [48601-48800] [48801-49000] [49001-49200] [49201-49400] [49401-49600] [49601-49800] [49801-50000] [50001-50200] [50201-50400] [50401-50600] [50601-50741]

Designation T Tech N Date Right Ascension Declination Apparent Magnitude Star Catalog Site code χ Used A Used M
yr-mo-day precision hr:min:sec precision rms F bias residual deg min sec precision rms F bias residual mag/col rms residual
2021KH3 O C K 2021-09-10.48786 1.000E-05 03:15:06.610 1.500E-01 0.500 F -0.343 0.044 -01° 01' 27.80" 1.000E-01 0.500 F 0.253 0.114 22.4 R 0.70 1.13 o 691 0.25 Yes Yes
2021KH3 O C K 2021-09-10.49513 1.000E-05 03:15:06.440 1.500E-01 0.500 F -0.343 -0.029 -01° 01' 25.70" 1.000E-01 0.500 F 0.253 0.287 22.3 R 0.70 1.03 o 691 0.61 Yes Yes
2021RN1 O C K 2021-09-11.14072 1.000E-05 20:31:05.430 1.500E-01 0.500 F 0.115 0.733 +08° 30' 49.20" 1.000E-01 0.500 F 0.314 -0.171 o 691 1.59 Yes No
2021RN1 O C K 2021-09-11.14392 1.000E-05 20:31:04.620 1.500E-01 0.500 F 0.115 0.430 +08° 31' 18.20" 1.000E-01 0.500 F 0.314 -0.283 o 691 1.09 Yes No
2021LC19 O C K 2021-09-11.18718 1.000E-05 20:32:34.250 1.500E-01 0.500 F 0.043 0.073 +08° 14' 58.80" 1.000E-01 0.500 F 0.347 -0.133 o 691 0.36 Yes No
2021LC19 O C K 2021-09-11.19758 1.000E-05 20:32:36.110 1.500E-01 0.500 F 0.043 -0.116 +08° 14' 51.90" 1.000E-01 0.500 F 0.347 -0.186 o 691 0.50 Yes No
2021RA4 O C K 2021-09-11.22865 1.000E-05 21:09:27.480 1.500E-01 0.500 F -0.157 0.218 -21° 01' 19.60" 1.000E-01 0.500 F 0.080 -0.618 20.3 R 0.70 0.38 o 691 1.35 Yes Yes
2021RA4 O C K 2021-09-11.23189 1.000E-05 21:09:27.710 1.500E-01 0.500 F -0.157 0.541 -21° 01' 54.30" 1.000E-01 0.500 F 0.080 -0.175 19.9 R 0.70 -0.02 o 691 1.18 Yes Yes
2021RJ2 O C K 2021-09-11.27559 1.000E-05 21:18:43.880 1.500E-01 0.500 F 0.068 -0.073 +25° 38' 03.50" 1.000E-01 0.500 F 0.294 0.017 20.7 R 0.70 0.30 o 691 0.15 Yes Yes
2021RJ2 O C K 2021-09-11.28079 1.000E-05 21:18:44.470 1.500E-01 0.500 F 0.068 0.079 +25° 37' 56.20" 1.000E-01 0.500 F 0.294 0.181 20.3 R 0.70 -0.10 o 691 0.40 Yes Yes
2021RJ2 O C K 2021-09-11.28600 1.000E-05 21:18:45.070 1.500E-01 0.500 F 0.068 0.319 +25° 37' 48.30" 1.000E-01 0.500 F 0.294 -0.205 20.5 R 0.70 0.10 o 691 0.76 Yes Yes
2021QZ4 O C K 2021-09-11.29566 1.000E-05 21:20:17.130 1.500E-01 0.500 F -0.116 -0.477 -01° 37' 13.50" 1.000E-01 0.500 F 0.183 0.114 o 691 1.00 Yes No
2021QZ4 O C K 2021-09-11.30427 1.000E-05 21:20:17.820 1.500E-01 0.500 F -0.116 -0.229 -01° 37' 31.60" 1.000E-01 0.500 F 0.183 0.186 o 691 0.60 Yes No
2021QZ4 O C K 2021-09-11.31288 1.000E-05 21:20:18.580 1.500E-01 0.500 F -0.116 1.031 -01° 37' 49.60" 1.000E-01 0.500 F 0.183 0.358 o 691 2.22 Yes No
2021RW6 O C K 2021-09-11.33219 1.000E-05 21:56:28.050 1.500E-01 0.500 F 0.006 0.270 +06° 34' 58.70" 1.000E-01 0.500 F 0.458 -0.393 o 691 1.00 Yes No
2021RW6 O C K 2021-09-11.33940 1.000E-05 21:56:25.740 1.500E-01 0.500 F 0.006 -0.153 +06° 35' 10.50" 1.000E-01 0.500 F 0.458 0.043 o 691 0.33 Yes No
2021RW6 O C K 2021-09-11.34662 1.000E-05 21:56:23.440 1.500E-01 0.500 F 0.006 -0.425 +06° 35' 20.90" 1.000E-01 0.500 F 0.458 -0.925 o 691 2.14 Yes No
2021RO9 O C H 2021-09-12.22305 1.000E-05 21:06:50.780 1.500E-01 0.500 F 0.050 -0.029 +20° 55' 40.70" 1.000E-01 0.500 F 0.174 0.039 20.2 R 0.70 0.00 o 691 0.09 Yes Yes
2021RO9 O C H 2021-09-12.22560 1.000E-05 21:06:50.590 1.500E-01 0.500 F 0.050 0.132 +20° 55' 40.30" 1.000E-01 0.500 F 0.174 -0.002 20.5 R 0.70 0.30 o 691 0.27 Yes Yes
2021RO9 O C H 2021-09-12.22814 1.000E-05 21:06:50.390 1.500E-01 0.500 F 0.050 0.142 +20° 55' 40.30" 1.000E-01 0.500 F 0.174 0.357 20.5 R 0.70 0.30 o 691 0.77 Yes Yes
2021PB15 O C K 2021-09-12.39852 1.000E-05 01:20:24.280 1.500E-01 0.500 F -0.186 0.094 -02° 55' 28.80" 1.000E-01 0.500 F 0.171 0.248 18.2 R 0.70 -0.10 o 691 0.53 Yes Yes
2021PB15 O C K 2021-09-12.41142 1.000E-05 01:20:24.160 1.500E-01 0.500 F -0.186 -0.109 -02° 54' 46.70" 1.000E-01 0.500 F 0.171 -0.048 18.1 R 0.70 -0.20 o 691 0.24 Yes Yes
2021PB15 O C K 2021-09-12.42577 1.000E-05 01:20:24.040 1.500E-01 0.500 F -0.186 -0.187 -02° 53' 59.30" 1.000E-01 0.500 F 0.171 0.125 18.2 R 0.70 -0.10 o 691 0.45 Yes Yes
2021NY1 O C K 2021-09-13.11548 1.000E-05 16:05:45.910 1.500E-01 0.500 F 0.037 0.082 -05° 14' 15.90" 1.000E-01 0.500 F 0.264 -0.071 18.6 R 0.70 -0.43 o 691 0.21 Yes Yes
2021NY1 O C K 2021-09-13.11929 1.000E-05 16:05:45.320 1.500E-01 0.500 F 0.037 0.064 -05° 14' 29.70" 1.000E-01 0.500 F 0.264 0.133 18.8 R 0.70 -0.23 o 691 0.30 Yes Yes
2021NY1 O C K 2021-09-13.12311 1.000E-05 16:05:44.720 1.500E-01 0.500 F 0.037 -0.127 -05° 14' 44.00" 1.000E-01 0.500 F 0.264 -0.122 18.6 R 0.70 -0.43 o 691 0.36 Yes Yes
2021JG7 O C K 2021-09-13.13773 1.000E-05 19:19:49.110 1.500E-01 0.500 F 0.066 0.570 +04° 05' 33.90" 1.000E-01 0.500 F 0.092 0.110 o 691 1.20 Yes No
2014UU192 O C K 2021-09-13.14374 1.000E-05 19:42:30.640 1.500E-01 0.500 F 0.125 0.422 -06° 34' 44.80" 1.000E-01 0.500 F 0.123 -0.160 19.0 R 0.70 0.14 o 691 0.91 Yes Yes
2021JG7 O C K 2021-09-13.14771 1.000E-05 19:19:52.990 1.500E-01 0.500 F 0.066 0.266 +04° 05' 17.50" 1.000E-01 0.500 F 0.092 0.014 o 691 0.55 Yes No
2014UU192 O C K 2021-09-13.15504 1.000E-05 19:42:33.300 1.500E-01 0.500 F 0.125 0.111 -06° 35' 07.90" 1.000E-01 0.500 F 0.123 -0.156 19.0 R 0.70 0.14 o 691 0.39 Yes Yes
2021JG7 O C K 2021-09-13.15772 1.000E-05 19:19:56.890 1.500E-01 0.500 F 0.066 0.082 +04° 05' 01.40" 1.000E-01 0.500 F 0.092 0.274 o 691 0.58 Yes No
2014UU192 O C K 2021-09-13.16374 1.000E-05 19:42:35.350 1.500E-01 0.500 F 0.125 -0.100 -06° 35' 25.70" 1.000E-01 0.500 F 0.123 -0.180 19.3 R 0.70 0.44 o 691 0.41 Yes Yes
2021RU19 O C K 2021-09-13.17296 1.000E-05 21:10:06.570 1.500E-01 0.500 F -0.062 0.099 -22° 32' 36.90" 1.000E-01 0.500 F 0.347 -0.580 21.9 R 0.70 0.40 o 691 1.19 Yes Yes
2021RU19 O C K 2021-09-13.18395 1.000E-05 21:10:06.150 1.500E-01 0.500 F -0.062 -0.617 -22° 32' 50.20" 1.000E-01 0.500 F 0.347 -0.030 21.7 R 0.70 0.20 o 691 1.26 Yes Yes
2021RU19 O C K 2021-09-13.19494 1.000E-05 21:10:05.830 1.500E-01 0.500 F -0.062 0.084 -22° 33' 04.00" 1.000E-01 0.500 F 0.347 -0.056 22.4 R 0.70 0.90 o 691 0.20 Yes Yes
2021RE15 O C K 2021-09-13.21364 1.000E-05 21:48:53.030 1.500E-01 0.500 F -0.192 -0.245 -16° 12' 20.60" 1.000E-01 0.500 F 0.337 -0.037 o 691 0.50 Yes No
2021RE15 O C K 2021-09-13.22927 1.000E-05 21:48:51.620 1.500E-01 0.500 F -0.192 -0.362 -16° 12' 21.60" 1.000E-01 0.500 F 0.337 -0.043 o 691 0.74 Yes No
2021RE15 O C K 2021-09-13.24492 1.000E-05 21:48:50.230 1.500E-01 0.500 F -0.192 -0.162 -16° 12' 22.70" 1.000E-01 0.500 F 0.337 -0.183 21.9 R 0.70 0.67 o 691 0.50 Yes Yes
2021NY1 O C H 2021-09-14.12006 1.000E-05 16:03:41.450 1.500E-01 0.500 F 0.116 -0.353 -06° 23' 39.30" 1.000E-01 0.500 F 0.284 -0.053 18.1 R 0.70 -0.79 o 691 0.72 Yes Yes
2021NY1 O C H 2021-09-14.12141 1.000E-05 16:03:41.220 1.500E-01 0.500 F 0.116 0.008 -06° 23' 45.20" 1.000E-01 0.500 F 0.284 0.157 19.1 R 0.70 0.21 o 691 0.32 Yes Yes
2021NY1 O C H 2021-09-14.12275 1.000E-05 16:03:40.980 1.500E-01 0.500 F 0.116 0.186 -06° 23' 51.50" 1.000E-01 0.500 F 0.284 -0.076 18.8 R 0.70 -0.09 o 691 0.40 Yes Yes
2021PJ3 O C K 2021-09-14.13601 1.000E-05 20:37:54.850 1.500E-01 0.500 F -0.089 0.323 -07° 05' 52.00" 1.000E-01 0.500 F 0.397 -0.722 o 691 1.59 Yes No
2021PJ3 O C K 2021-09-14.16225 1.000E-05 20:37:53.830 1.500E-01 0.500 F -0.089 0.572 -07° 06' 17.20" 1.000E-01 0.500 F 0.397 -0.334 o 691 1.33 Yes No
2021RN1 O C K 2021-09-14.17668 1.000E-05 20:21:18.080 1.500E-01 0.500 F -0.018 -0.084 +15° 01' 04.00" 1.000E-01 0.500 F 0.300 0.335 o 691 0.74 Yes No
2021RN1 O C K 2021-09-14.19895 1.000E-05 20:21:14.150 1.500E-01 0.500 F -0.018 -0.030 +15° 03' 28.10" 1.000E-01 0.500 F 0.300 -0.131 21.3 R 0.70 0.94 o 691 0.29 Yes Yes
2021RV7 O C K 2021-09-14.21862 1.000E-05 21:16:27.670 1.500E-01 0.500 F -0.021 -0.245 -03° 24' 57.00" 1.000E-01 0.500 F 0.274 0.340 21.4 R 0.70 0.56 o 691 0.88 Yes Yes
2021RE15 O C K 2021-09-14.22843 1.000E-05 21:47:27.780 1.500E-01 0.500 F -0.144 0.088 -16° 13' 14.90" 1.000E-01 0.500 F 0.313 0.033 21.1 R 0.70 -0.14 o 691 0.19 Yes Yes
2021RV7 O C K 2021-09-14.23752 1.000E-05 21:16:33.160 1.500E-01 0.500 F -0.021 0.151 -03° 25' 28.70" 1.000E-01 0.500 F 0.274 0.305 21.5 R 0.70 0.66 o 691 0.72 Yes Yes
2021RE15 O C K 2021-09-14.24728 1.000E-05 21:47:26.070 1.500E-01 0.500 F -0.144 -0.575 -16° 13' 15.50" 1.000E-01 0.500 F 0.313 0.287 20.8 R 0.70 -0.44 o 691 1.30 Yes Yes
2021RV7 O C K 2021-09-14.25638 1.000E-05 21:16:38.610 1.500E-01 0.500 F -0.021 0.176 -03° 26' 00.60" 1.000E-01 0.500 F 0.274 -0.086 o 691 0.41 Yes No
2021RE15 O C K 2021-09-14.26614 1.000E-05 21:47:24.460 1.500E-01 0.500 F -0.144 0.196 -16° 13' 16.40" 1.000E-01 0.500 F 0.313 0.190 o 691 0.55 Yes No
2021QR1 O C K 2021-09-15.11790 1.000E-05 20:20:58.410 1.500E-01 0.500 F 0.014 0.060 -30° 37' 17.20" 1.000E-01 0.500 F 0.555 0.183 19.2 R 0.70 0.48 o 691 0.40 Yes Yes
2021QR1 O C K 2021-09-15.12555 1.000E-05 20:21:01.930 1.500E-01 0.500 F 0.014 -0.505 -30° 38' 06.90" 1.000E-01 0.500 F 0.555 0.090 19.2 R 0.70 0.48 o 691 1.07 Yes Yes
2021QR1 O C K 2021-09-15.13320 1.000E-05 20:21:05.490 1.500E-01 0.500 F 0.014 -0.531 -30° 38' 56.80" 1.000E-01 0.500 F 0.555 -0.273 18.6 R 0.70 -0.12 o 691 1.24 Yes Yes
2021LH9 O C H 2021-09-15.15975 1.000E-05 20:40:16.950 1.500E-01 0.500 F -0.093 -0.004 +05° 02' 02.00" 1.000E-01 0.500 F 0.255 0.184 19.8 R 0.70 1.08 o 691 0.37 Yes Yes
2021LH9 O C H 2021-09-15.17310 1.000E-05 20:40:19.140 1.500E-01 0.500 F -0.093 0.129 +05° 02' 13.90" 1.000E-01 0.500 F 0.255 -0.324 19.0 R 0.70 0.28 o 691 0.70 Yes Yes
2021OX1 O C H 2021-09-15.18539 1.000E-05 22:08:19.190 1.500E-01 0.500 F -0.156 0.142 -31° 46' 01.00" 1.000E-01 0.500 F 0.504 0.203 19.5 R 0.70 0.12 o 691 0.49 Yes Yes
2021OX1 O C H 2021-09-15.19325 1.000E-05 22:08:19.320 1.500E-01 0.500 F -0.156 0.186 -31° 46' 05.00" 1.000E-01 0.500 F 0.504 0.060 19.7 R 0.70 0.32 o 691 0.39 Yes Yes
2021OX1 O C H 2021-09-15.20103 1.000E-05 22:08:19.490 1.500E-01 0.500 F -0.156 0.768 -31° 46' 08.40" 1.000E-01 0.500 F 0.504 0.455 19.2 R 0.70 -0.18 o 691 1.80 Yes Yes
2021PY40 O C H 2021-09-15.20348 1.000E-05 22:00:48.210 1.500E-01 0.500 F -0.164 -0.058 -08° 26' 52.60" 1.000E-01 0.500 F 0.257 -0.089 17.6 R 0.70 -0.12 o 691 0.21 Yes Yes
2021PC10 O C H 2021-09-15.20689 1.000E-05 22:42:48.260 1.500E-01 0.500 F -0.074 -0.333 -25° 56' 30.40" 1.000E-01 0.500 F 0.373 -0.177 19.2 R 0.70 0.05 o 691 0.76 Yes Yes
2021PY40 O C H 2021-09-15.20814 1.000E-05 22:00:47.510 1.500E-01 0.500 F -0.164 -0.094 -08° 27' 15.50" 1.000E-01 0.500 F 0.257 0.003 17.7 R 0.70 -0.02 o 691 0.19 Yes Yes
2021PC10 O C H 2021-09-15.21156 1.000E-05 22:42:48.970 1.500E-01 0.500 F -0.074 -0.380 -25° 56' 50.40" 1.000E-01 0.500 F 0.373 0.269 19.5 R 0.70 0.35 o 691 0.95 Yes Yes
2021PY40 O C H 2021-09-15.21281 1.000E-05 22:00:46.810 1.500E-01 0.500 F -0.164 -0.096 -08° 27' 38.60" 1.000E-01 0.500 F 0.257 -0.053 17.6 R 0.70 -0.12 o 691 0.22 Yes Yes
2021PC10 O C H 2021-09-15.21623 1.000E-05 22:42:49.790 1.500E-01 0.500 F -0.074 1.072 -25° 57' 11.00" 1.000E-01 0.500 F 0.373 0.095 19.4 R 0.70 0.25 o 691 2.18 Yes Yes
2021RQ9 O C H 2021-09-15.22813 1.000E-05 21:58:37.560 1.500E-01 0.500 F -0.126 -0.326 +16° 32' 18.60" 1.000E-01 0.500 F 0.363 -0.188 18.0 R 0.70 -0.23 o 691 0.76 Yes Yes
2021RQ9 O C H 2021-09-15.23976 1.000E-05 21:58:18.440 1.500E-01 0.500 F -0.126 0.093 +16° 33' 18.10" 1.000E-01 0.500 F 0.363 0.033 18.2 R 0.70 -0.02 o 691 0.20 Yes Yes
2021RQ9 O C H 2021-09-15.25142 1.000E-05 21:57:59.020 1.500E-01 0.500 F -0.090 -0.034 +16° 34' 17.30" 1.000E-01 0.500 F 0.362 0.000 18.2 R 0.70 -0.01 o 691 0.07 Yes Yes
2021RL3 O C H 2021-09-15.25740 1.000E-05 22:48:58.700 1.500E-01 0.500 F -0.106 -0.275 +03° 02' 42.10" 1.000E-01 0.500 F 0.312 -0.247 18.4 R 0.70 -0.10 o 691 0.77 Yes Yes
2021RN3 O C K 2021-09-15.26070 1.000E-05 23:14:44.840 1.500E-01 0.500 F -0.118 -0.286 -04° 28' 51.70" 1.000E-01 0.500 F 0.291 -2.668 19.9 R 0.70 0.62 o 691 4.26 No Yes
2021RL3 O C H 2021-09-15.26382 1.000E-05 22:48:55.140 1.500E-01 0.500 F -0.106 0.286 +03° 02' 02.50" 1.000E-01 0.500 F 0.312 0.065 18.8 R 0.70 0.30 o 691 0.61 Yes Yes
2021RN3 O C K 2021-09-15.26713 1.000E-05 23:14:47.550 1.500E-01 0.500 F -0.118 -0.947 -04° 30' 34.00" 1.000E-01 0.500 F 0.291 -4.301 19.1 R 0.70 -0.18 o 691 6.95 No Yes
2021RL3 O C H 2021-09-15.27025 1.000E-05 22:48:51.540 1.500E-01 0.500 F -0.106 0.464 +03° 01' 22.50" 1.000E-01 0.500 F 0.312 0.140 18.7 R 0.70 0.20 o 691 1.01 Yes Yes
2021PB15 O C 2021-09-15.29780 1.000E-05 01:21:08.500 1.500E-01 0.500 F -0.216 -0.080 -00° 00' 53.60" 1.000E-01 0.500 F 0.252 -0.109 18.7 V 0.70 0.28 o 691 0.27 Yes Yes
2021PB15 O C 2021-09-15.30901 1.000E-05 01:21:08.310 1.500E-01 0.500 F -0.216 -0.166 -00° 00' 08.90" 1.000E-01 0.500 F 0.252 0.099 18.8 V 0.70 0.38 o 691 0.39 Yes Yes
2021PB15 O C 2021-09-15.32023 1.000E-05 01:21:08.100 1.500E-01 0.500 F -0.216 -0.382 +00° 00' 38.60" 1.000E-01 0.500 F 0.252 3.035 17.9 V 0.70 -0.52 o 691 6.08 No Yes
2011UC292 O C K 2021-09-16.18407 1.000E-05 21:43:14.570 1.500E-01 0.500 F -0.169 0.117 -08° 58' 11.90" 1.000E-01 0.500 F 0.318 -0.058 19.4 R 0.70 0.12 o 691 0.26 Yes Yes
2021PY40 O C H 2021-09-16.18924 1.000E-05 21:58:38.600 1.500E-01 0.500 F -0.130 -0.227 -09° 50' 34.20" 1.000E-01 0.500 F 0.273 -0.232 17.5 R 0.70 -0.19 o 691 0.65 Yes Yes
2011UC292 O C K 2021-09-16.19061 1.000E-05 21:43:15.260 1.500E-01 0.500 F -0.169 -0.147 -08° 58' 17.70" 1.000E-01 0.500 F 0.318 -0.066 19.4 R 0.70 0.12 o 691 0.32 Yes Yes
2021PY40 O C H 2021-09-16.19579 1.000E-05 21:58:37.560 1.500E-01 0.500 F -0.130 -0.392 -09° 51' 08.90" 1.000E-01 0.500 F 0.273 -0.301 17.6 R 0.70 -0.09 o 691 0.99 Yes Yes
2011UC292 O C K 2021-09-16.19717 1.000E-05 21:43:15.990 1.500E-01 0.500 F -0.169 0.179 -08° 58' 23.60" 1.000E-01 0.500 F 0.318 -0.178 19.3 R 0.70 0.02 o 691 0.51 Yes Yes
2021PY40 O C H 2021-09-16.20233 1.000E-05 21:58:36.550 1.500E-01 0.500 F -0.130 -0.106 -09° 51' 43.30" 1.000E-01 0.500 F 0.273 -0.123 17.6 R 0.70 -0.08 o 691 0.33 Yes Yes
2001PD1 O C 2021-09-16.20549 1.000E-05 21:41:07.040 1.500E-01 0.500 F 0.000 -0.252 +12° 34' 42.10" 1.000E-01 0.500 F 0.184 -0.123 17.6 V 0.70 0.25 o 691 0.56 Yes Yes
2021QV6 O C H 2021-09-16.20549 1.000E-05 21:39:20.560 1.500E-01 0.500 F 0.000 -0.008 +12° 32' 17.60" 1.000E-01 0.500 F 0.184 -0.084 15.6 R 0.70 -2.49 o 691 0.17 Yes No
2021PC10 O C K 2021-09-16.20943 1.000E-05 22:45:46.220 1.500E-01 0.500 F -0.132 0.075 -27° 08' 05.80" 1.000E-01 0.500 F 0.420 0.413 19.0 R 0.70 -0.19 o 691 0.86 Yes Yes
2001PD1 O C 2021-09-16.21257 1.000E-05 21:41:07.050 1.500E-01 0.500 F 0.000 -0.335 +12° 34' 48.60" 1.000E-01 0.500 F 0.184 -0.168 17.7 V 0.70 0.35 o 691 0.75 Yes Yes
2021QV6 O C H 2021-09-16.21257 1.000E-05 21:39:19.230 1.500E-01 0.500 F 0.000 -0.037 +12° 31' 16.80" 1.000E-01 0.500 F 0.184 -0.025 15.9 R 0.70 -2.19 o 691 0.09 Yes No
2021PC10 O C K 2021-09-16.21652 1.000E-05 22:45:47.290 1.500E-01 0.500 F -0.132 -0.558 -27° 08' 36.20" 1.000E-01 0.500 F 0.420 0.482 20.1 R 0.70 0.91 o 691 1.50 Yes Yes
2001PD1 O C 2021-09-16.21965 1.000E-05 21:41:07.090 1.500E-01 0.500 F 0.000 0.025 +12° 34' 55.30" 1.000E-01 0.500 F 0.184 -0.002 17.7 V 0.70 0.35 o 691 0.05 Yes Yes
2021QV6 O C H 2021-09-16.21965 1.000E-05 21:39:17.920 1.500E-01 0.500 F 0.000 0.271 +12° 30' 15.30" 1.000E-01 0.500 F 0.184 -0.520 15.5 R 0.70 -2.59 o 691 1.18 Yes No
2021PO41 O C H 2021-09-16.26938 1.000E-05 23:12:37.450 1.500E-01 0.500 F -0.287 0.006 -12° 13' 01.10" 1.000E-01 0.500 F 0.293 0.115 18.0 R 0.70 0.35 o 691 0.23 Yes Yes
2021PO41 O C H 2021-09-16.27512 1.000E-05 23:12:36.220 1.500E-01 0.500 F -0.287 -0.119 -12° 12' 39.70" 1.000E-01 0.500 F 0.293 -0.063 18.0 R 0.70 0.35 o 691 0.27 Yes Yes
2021PO41 O C H 2021-09-16.28083 1.000E-05 23:12:35.010 1.500E-01 0.500 F -0.287 -0.042 -12° 12' 17.80" 1.000E-01 0.500 F 0.293 0.363 18.1 R 0.70 0.45 o 691 0.73 Yes Yes
2021RL3 O C K 2021-09-17.23633 1.000E-05 22:23:26.000 1.500E-01 0.500 F -0.036 -0.137 -02° 07' 30.10" 1.000E-01 0.500 F 0.412 0.008 17.3 R 0.70 -0.50 o 691 0.29 Yes Yes
2021RL3 O C K 2021-09-17.24420 1.000E-05 22:23:16.370 1.500E-01 0.500 F -0.022 -0.017 -02° 09' 21.30" 1.000E-01 0.500 F 0.355 -0.044 18.2 R 0.70 0.41 o 691 0.10 Yes Yes
2006OA5 O C H 2021-09-29.10854 1.000E-05 18:08:17.330 1.500E-01 0.500 F -0.029 0.298 -02° 52' 13.20" 1.000E-01 0.500 F 0.326 -0.237 20.0 R 0.70 0.34 o 691 0.77 Yes Yes
2006OA5 O C H 2021-09-29.11030 1.000E-05 18:08:17.420 1.500E-01 0.500 F -0.029 0.052 -02° 52' 10.10" 1.000E-01 0.500 F 0.326 -0.074 20.3 R 0.70 0.64 o 691 0.18 Yes Yes
2006OA5 O C H 2021-09-29.11206 1.000E-05 18:08:17.520 1.500E-01 0.500 F -0.029 -0.046 -02° 52' 07.20" 1.000E-01 0.500 F 0.326 -0.110 20.5 R 0.70 0.84 o 691 0.25 Yes Yes
2021PS2 O C H 2021-09-29.11453 1.000E-05 21:07:08.330 1.500E-01 0.500 F -0.043 0.254 -18° 28' 32.00" 1.000E-01 0.500 F 0.226 0.633 20.3 R 0.70 -0.10 o 691 1.37 Yes Yes
2021PJ3 O C K 2021-09-29.11645 1.000E-05 20:34:26.230 1.500E-01 0.500 F -0.096 -0.533 -10° 59' 38.00" 1.000E-01 0.500 F 0.267 4.820 o 691 9.64 No No
2021JG7 O C K 2021-09-29.12343 1.000E-05 20:56:13.700 1.500E-01 0.500 F 0.023 -0.246 -02° 09' 57.70" 1.000E-01 0.500 F 0.170 -0.141 21.4 R 0.70 0.70 o 691 0.58 Yes Yes
2021PS2 O C H 2021-09-29.12823 1.000E-05 21:07:10.130 1.500E-01 0.500 F -0.043 0.060 -18° 28' 33.60" 1.000E-01 0.500 F 0.226 -0.271 20.2 R 0.70 -0.20 o 691 0.56 Yes Yes
2021PJ3 O C K 2021-09-29.13015 1.000E-05 20:34:26.340 1.500E-01 0.500 F -0.096 0.044 -10° 59' 54.60" 1.000E-01 0.500 F 0.267 0.244 21.0 R 0.70 -0.18 o 691 0.50 Yes Yes
2021JG7 O C K 2021-09-29.13716 1.000E-05 20:56:17.820 1.500E-01 0.500 F 0.023 -0.854 -02° 10' 12.30" 1.000E-01 0.500 F 0.170 0.088 21.4 R 0.70 0.69 o 691 1.74 Yes Yes
2021PS2 O C H 2021-09-29.14197 1.000E-05 21:07:11.950 1.500E-01 0.500 F -0.043 0.106 -18° 28' 34.00" 1.000E-01 0.500 F 0.226 -0.010 21.0 R 0.70 0.60 o 691 0.21 Yes Yes
2021PJ3 O C K 2021-09-29.14388 1.000E-05 20:34:26.400 1.500E-01 0.500 F -0.096 -0.119 -11° 00' 06.80" 1.000E-01 0.500 F 0.267 0.079 21.5 R 0.70 0.32 o 691 0.29 Yes Yes
2021JG7 O C K 2021-09-29.15091 1.000E-05 20:56:22.030 1.500E-01 0.500 F 0.023 -0.161 -02° 10' 27.50" 1.000E-01 0.500 F 0.170 -0.276 20.9 R 0.70 0.19 o 691 0.65 Yes Yes
2021RO9 O C H 2021-09-29.17532 1.000E-05 20:51:17.920 1.500E-01 0.500 F 0.042 0.229 +19° 25' 42.80" 1.000E-01 0.500 F 0.306 -0.106 o 691 0.53 Yes No
2021SE2 O C K 2021-09-29.17885 1.000E-05 21:16:11.700 1.500E-01 0.500 F -0.069 0.011 -01° 38' 03.10" 1.000E-01 0.500 F 0.180 -0.079 20.4 R 0.70 -0.45 o 691 0.16 Yes Yes
2021SU1 O C H 2021-09-29.18212 1.000E-05 21:24:52.180 1.500E-01 0.500 F -0.097 0.090 -03° 45' 05.60" 1.000E-01 0.500 F 0.340 0.084 o 691 0.25 Yes No
2021RO9 O C H 2021-09-29.18432 1.000E-05 20:51:17.580 1.500E-01 0.500 F 0.042 -0.075 +19° 25' 38.90" 1.000E-01 0.500 F 0.306 0.175 20.1 R 0.70 -0.06 o 691 0.39 Yes Yes
2021SE2 O C K 2021-09-29.18661 1.000E-05 21:16:13.240 1.500E-01 0.500 F -0.069 -0.021 -01° 37' 47.00" 1.000E-01 0.500 F 0.180 -0.598 o 691 1.21 Yes No
2021SU1 O C H 2021-09-29.18988 1.000E-05 21:24:53.200 1.500E-01 0.500 F -0.097 0.129 -03° 45' 20.10" 1.000E-01 0.500 F 0.340 -0.178 20.5 R 0.70 0.44 o 691 0.44 Yes Yes
2021RO9 O C H 2021-09-29.19209 1.000E-05 20:51:17.330 1.500E-01 0.500 F 0.042 0.272 +19° 25' 35.10" 1.000E-01 0.500 F 0.306 -0.006 20.3 R 0.70 0.14 o 691 0.57 Yes Yes
2021SE2 O C K 2021-09-29.19435 1.000E-05 21:16:14.790 1.500E-01 0.500 F -0.069 0.153 -01° 37' 29.60" 1.000E-01 0.500 F 0.180 0.228 20.7 R 0.70 -0.15 o 691 0.55 Yes Yes
2021SU1 O C H 2021-09-29.19762 1.000E-05 21:24:54.240 1.500E-01 0.500 F -0.097 0.493 -03° 45' 34.10" 1.000E-01 0.500 F 0.340 -0.048 20.1 R 0.70 0.04 o 691 1.00 Yes Yes
2021QZ4 O C K 2021-09-29.21363 1.000E-05 21:58:18.020 1.500E-01 0.500 F -0.228 -0.249 -12° 27' 28.70" 1.000E-01 0.500 F 0.268 0.740 20.9 R 0.70 -0.64 o 691 1.74 Yes Yes
2021QZ4 O C K 2021-09-29.22623 1.000E-05 21:58:20.020 1.500E-01 0.500 F -0.228 0.525 -12° 27' 55.20" 1.000E-01 0.500 F 0.268 -0.063 21.4 R 0.70 -0.14 o 691 1.16 Yes Yes
2021RR14 O C K 2021-09-29.24823 1.000E-05 01:24:53.120 1.500E-01 0.500 F -0.196 -0.174 -02° 36' 38.40" 1.000E-01 0.500 F 0.187 0.193 21.3 R 0.70 0.51 o 691 0.52 Yes Yes
2021RR14 O C K 2021-09-29.25846 1.000E-05 01:24:50.270 1.500E-01 0.500 F -0.196 0.189 -02° 36' 34.50" 1.000E-01 0.500 F 0.187 -0.345 o 691 0.79 Yes No
2021RR14 O C K 2021-09-29.26869 1.000E-05 01:24:47.320 1.500E-01 0.500 F -0.196 -0.615 -02° 36' 29.60" 1.000E-01 0.500 F 0.187 0.094 20.5 R 0.70 -0.29 o 691 1.25 Yes Yes
2021RM12 O C K 2021-09-29.27513 1.000E-05 01:36:08.260 1.500E-01 0.500 F -0.421 0.302 +00° 29' 20.10" 1.000E-01 0.500 F 0.246 -0.193 o 691 0.79 Yes No
2021RM12 O C K 2021-09-29.28777 1.000E-05 01:36:06.980 1.500E-01 0.500 F -0.421 -1.034 +00° 29' 05.80" 1.000E-01 0.500 F 0.246 -0.247 21.8 R 0.70 0.33 o 691 2.36 Yes Yes
2021RM12 O C K 2021-09-29.30040 1.000E-05 01:36:05.880 1.500E-01 0.500 F -0.421 0.355 +00° 28' 51.90" 1.000E-01 0.500 F 0.246 0.086 21.4 R 0.70 -0.07 o 691 0.81 Yes Yes
2021SF1 O C K 2021-09-29.31508 1.000E-05 00:57:01.240 1.500E-01 0.500 F -0.220 -0.333 +15° 14' 23.20" 1.000E-01 0.500 F 0.425 2.016 21.5 R 0.70 1.41 o 691 4.06 No Yes
2021RV6 O C K 2021-09-29.31839 1.000E-05 00:55:25.760 1.500E-01 0.500 F -0.152 0.047 +13° 17' 41.50" 1.000E-01 0.500 F 0.343 0.007 20.9 R 0.70 0.45 o 691 0.10 Yes Yes
2021SF1 O C K 2021-09-29.32877 1.000E-05 00:57:06.350 1.500E-01 0.500 F -0.220 0.371 +15° 15' 03.30" 1.000E-01 0.500 F 0.425 -0.219 o 691 0.87 Yes No
2021RV6 O C K 2021-09-29.33208 1.000E-05 00:55:24.800 1.500E-01 0.500 F -0.152 0.479 +13° 18' 40.80" 1.000E-01 0.500 F 0.343 -0.094 20.0 R 0.70 -0.45 o 691 0.98 Yes Yes
2021SF1 O C K 2021-09-29.34306 1.000E-05 00:57:11.620 1.500E-01 0.500 F -0.220 0.032 +15° 15' 46.70" 1.000E-01 0.500 F 0.425 -0.544 21.2 R 0.70 1.11 o 691 1.10 Yes Yes
2021RV6 O C K 2021-09-29.34637 1.000E-05 00:55:23.710 1.500E-01 0.500 F -0.152 -0.361 +13° 19' 42.90" 1.000E-01 0.500 F 0.343 0.078 o 691 0.74 Yes No
2021RY6 O C K 2021-09-29.36106 1.000E-05 02:14:42.070 1.500E-01 0.500 F -0.363 0.962 -06° 49' 48.50" 1.000E-01 0.500 F 0.061 -0.409 20.7 R 0.70 0.59 o 691 2.13 Yes Yes
2021RY6 O C K 2021-09-29.37517 1.000E-05 02:14:44.520 1.500E-01 0.500 F -0.363 0.109 -06° 50' 44.40" 1.000E-01 0.500 F 0.061 -1.456 o 691 2.97 Yes No
2021RY6 O C K 2021-09-29.38972 1.000E-05 02:14:47.040 1.500E-01 0.500 F -0.363 -0.789 -06° 51' 40.00" 1.000E-01 0.500 F 0.061 -0.637 21.2 R 0.70 1.09 o 691 2.06 Yes Yes
2021RA2 O C K 2021-09-29.40523 1.000E-05 01:48:36.280 1.500E-01 0.500 F -0.217 -0.149 +02° 04' 32.90" 1.000E-01 0.500 F 0.336 -0.034 20.4 R 0.70 -0.90 o 691 0.31 Yes Yes
2021RA2 O C K 2021-09-29.42321 1.000E-05 01:48:33.800 1.500E-01 0.500 F -0.217 0.131 +02° 04' 40.10" 1.000E-01 0.500 F 0.336 -0.080 21.0 R 0.70 -0.30 o 691 0.31 Yes Yes
2021RA2 O C K 2021-09-29.44118 1.000E-05 01:48:31.250 1.500E-01 0.500 F -0.217 -0.715 +02° 04' 47.20" 1.000E-01 0.500 F 0.336 -0.215 21.4 R 0.70 0.10 o 691 1.50 Yes Yes
2021ND2 O C K 2021-09-29.48337 1.000E-05 04:50:14.530 1.500E-01 0.500 F -0.153 0.144 +14° 34' 48.40" 1.000E-01 0.500 F 0.184 0.378 20.3 R 0.70 -0.04 o 691 0.82 Yes Yes
2021ND2 O C K 2021-09-29.49393 1.000E-05 04:50:14.290 1.500E-01 0.500 F -0.153 0.273 +14° 35' 06.10" 1.000E-01 0.500 F 0.184 -0.370 20.7 R 0.70 0.36 o 691 0.94 Yes Yes
2021ND2 O C K 2021-09-29.50448 1.000E-05 04:50:14.050 1.500E-01 0.500 F -0.153 0.403 +14° 35' 25.40" 1.000E-01 0.500 F 0.184 0.515 20.1 R 0.70 -0.24 o 691 1.33 Yes Yes
2021SM3 O C K 2021-10-01.40299 1.000E-05 02:56:00.520 1.500E-01 0.500 F -0.406 0.337 -15° 46' 43.80" 1.000E-01 0.500 F 0.118 0.641 18.7 R 0.70 -1.07 o 691 1.47 Yes Yes
2021SM3 O C K 2021-10-01.41083 1.000E-05 02:56:02.200 1.500E-01 0.500 F -0.406 0.359 -15° 46' 30.10" 1.000E-01 0.500 F 0.118 -0.392 19.5 R 0.70 -0.27 o 691 1.08 Yes Yes
2021RO1 O C K 2021-10-01.41469 1.000E-05 03:24:21.580 1.500E-01 0.500 F -0.182 0.129 -27° 45' 49.50" 1.000E-01 0.500 F 0.235 0.377 20.6 R 0.70 0.60 o 691 0.80 Yes Yes
2021PB O C K 2021-10-01.41749 1.000E-05 03:26:24.530 1.500E-01 0.500 F -0.100 0.101 -26° 27' 27.80" 1.000E-01 0.500 F 0.134 0.204 o 691 0.46 Yes No
2021NC8 O C H 2021-10-01.42647 1.000E-05 03:18:41.790 1.500E-01 0.500 F -0.334 -0.041 -12° 12' 37.40" 1.000E-01 0.500 F 0.183 -0.096 20.3 R 0.70 -0.12 o 691 0.21 Yes Yes
2021RO1 O C K 2021-10-01.42888 1.000E-05 03:24:24.610 1.500E-01 0.500 F -0.182 0.048 -27° 47' 02.00" 1.000E-01 0.500 F 0.235 0.621 20.6 R 0.70 0.60 o 691 1.26 Yes Yes
2021PB O C K 2021-10-01.43167 1.000E-05 03:26:24.810 1.500E-01 0.500 F -0.100 -0.046 -26° 27' 05.40" 1.000E-01 0.500 F 0.134 0.115 21.5 R 0.70 0.48 o 691 0.25 Yes Yes
2021NC8 O C H 2021-10-01.44065 1.000E-05 03:18:42.020 1.500E-01 0.500 F -0.334 0.056 -12° 12' 34.20" 1.000E-01 0.500 F 0.183 -0.132 20.7 R 0.70 0.28 o 691 0.29 Yes Yes
2021RO1 O C K 2021-10-01.44307 1.000E-05 03:24:27.610 1.500E-01 0.500 F -0.182 -0.462 -27° 48' 15.60" 1.000E-01 0.500 F 0.235 -0.413 20.2 R 0.70 0.20 o 691 1.25 Yes Yes
2021PB O C K 2021-10-01.44587 1.000E-05 03:26:25.090 1.500E-01 0.500 F -0.100 -0.198 -26° 26' 42.70" 1.000E-01 0.500 F 0.134 0.126 22.1 R 0.70 1.08 o 691 0.48 Yes Yes
2021NC8 O C H 2021-10-01.45485 1.000E-05 03:18:42.240 1.500E-01 0.500 F -0.334 -0.010 -12° 12' 31.00" 1.000E-01 0.500 F 0.183 -0.219 20.8 R 0.70 0.38 o 691 0.44 Yes Yes
1992SZ O C 2021-10-01.46059 1.000E-05 03:19:42.660 1.500E-01 0.500 F -0.254 0.048 +26° 59' 48.30" 1.000E-01 0.500 F 0.285 -0.237 20.9 V 0.70 -0.08 o 691 0.49 Yes Yes
2021RF1 O C K 2021-10-01.46584 1.000E-05 04:45:13.240 1.500E-01 0.500 F -0.080 0.508 +06° 20' 07.50" 1.000E-01 0.500 F 0.161 0.188 21.1 R 0.70 0.14 o 691 1.10 Yes Yes
2017UX5 O C K 2021-10-01.47503 1.000E-05 05:59:24.730 1.500E-01 0.500 F -0.140 0.102 -06° 10' 20.30" 1.000E-01 0.500 F -0.031 -0.137 21.0 R 0.70 1.06 o 691 0.35 Yes Yes
1992SZ O C 2021-10-01.48255 1.000E-05 03:19:41.290 1.500E-01 0.500 F -0.254 -0.192 +27° 00' 05.60" 1.000E-01 0.500 F 0.285 -0.180 20.9 V 0.70 -0.08 o 691 0.53 Yes Yes
2021RF1 O C K 2021-10-01.48552 1.000E-05 04:45:17.890 1.500E-01 0.500 F -0.080 0.168 +06° 19' 30.20" 1.000E-01 0.500 F 0.161 -0.298 20.9 R 0.70 -0.06 o 691 0.70 Yes Yes
2017UX5 O C K 2021-10-01.49472 1.000E-05 05:59:29.310 1.500E-01 0.500 F -0.140 -0.063 -06° 09' 58.10" 1.000E-01 0.500 F -0.031 0.093 21.2 R 0.70 1.26 o 691 0.23 Yes Yes
1992SZ O C 2021-10-01.50145 1.000E-05 03:19:40.140 1.500E-01 0.500 F -0.254 -0.065 +27° 00' 20.40" 1.000E-01 0.500 F 0.285 -0.126 20.5 V 0.70 -0.48 o 691 0.29 Yes Yes
2021RF1 O C K 2021-10-01.50384 1.000E-05 04:45:22.220 1.500E-01 0.500 F -0.080 -0.119 +06° 18' 56.30" 1.000E-01 0.500 F 0.161 0.161 20.9 R 0.70 -0.06 o 691 0.41 Yes Yes
2017UX5 O C K 2021-10-01.51303 1.000E-05 05:59:33.580 1.500E-01 0.500 F -0.140 -0.013 -06° 09' 37.70" 1.000E-01 0.500 F -0.031 0.022 o 691 0.05 Yes No
2021RV10 O C K 2021-10-02.13417 1.000E-05 21:19:58.600 1.500E-01 0.500 F -0.010 0.419 -25° 07' 24.30" 1.000E-01 0.500 F 0.564 -0.449 o 691 1.50 Yes No
2021RV10 O C K 2021-10-02.14874 1.000E-05 21:20:01.700 1.500E-01 0.500 F -0.010 -0.284 -25° 06' 52.30" 1.000E-01 0.500 F 0.564 0.288 22.0 R 0.70 0.52 o 691 0.99 Yes Yes
2021RV10 O C K 2021-10-02.16331 1.000E-05 21:20:04.860 1.500E-01 0.500 F -0.010 -0.138 -25° 06' 21.10" 1.000E-01 0.500 F 0.564 0.154 21.7 R 0.70 0.21 o 691 0.51 Yes Yes
2021SU1 O C K 2021-10-02.18449 1.000E-05 21:34:04.430 1.500E-01 0.500 F -0.089 0.051 -04° 50' 24.60" 1.000E-01 0.500 F 0.282 -0.261 o 691 0.54 Yes No
2021SU1 O C K 2021-10-02.20049 1.000E-05 21:34:05.380 1.500E-01 0.500 F -0.089 0.716 -04° 50' 38.60" 1.000E-01 0.500 F 0.282 0.198 20.5 R 0.70 -0.31 o 691 1.50 Yes Yes
2021SU1 O C K 2021-10-02.21641 1.000E-05 21:34:06.260 1.500E-01 0.500 F -0.089 0.149 -04° 50' 52.90" 1.000E-01 0.500 F 0.282 0.076 20.9 R 0.70 0.08 o 691 0.34 Yes Yes
2021RU12 O C 2021-10-02.23271 1.000E-05 22:19:43.040 1.500E-01 0.500 F -0.126 -0.331 +11° 04' 36.10" 1.000E-01 0.500 F 0.321 -0.297 20.4 V 0.70 0.10 o 691 0.89 Yes Yes
2021RU12 O C 2021-10-02.24762 1.000E-05 22:19:40.940 1.500E-01 0.500 F -0.126 -0.190 +11° 04' 06.90" 1.000E-01 0.500 F 0.321 -0.211 20.3 V 0.70 0.00 o 691 0.57 Yes Yes
2021RU12 O C 2021-10-02.26254 1.000E-05 22:19:38.840 1.500E-01 0.500 F -0.126 -0.080 +11° 03' 38.20" 1.000E-01 0.500 F 0.321 0.472 20.0 V 0.70 -0.30 o 691 0.96 Yes Yes
2021PQ26 O C K 2021-10-02.26554 1.000E-05 22:26:04.890 1.500E-01 0.500 F -0.220 0.808 -18° 31' 56.20" 1.000E-01 0.500 F 0.209 0.130 21.7 R 0.70 0.03 o 691 1.67 Yes Yes
2021PQ26 O C K 2021-10-02.27929 1.000E-05 22:26:03.000 1.500E-01 0.500 F -0.220 -0.088 -18° 31' 48.30" 1.000E-01 0.500 F 0.209 -0.044 21.8 R 0.70 0.13 o 691 0.20 Yes Yes
2021PQ26 O C K 2021-10-02.29304 1.000E-05 22:26:01.170 1.500E-01 0.500 F -0.220 -0.156 -18° 31' 39.90" 1.000E-01 0.500 F 0.209 0.267 o 691 0.63 Yes No
2006TO O C K 2021-10-02.31069 1.000E-05 00:06:00.130 1.500E-01 0.500 F -0.076 0.065 +07° 31' 47.20" 1.000E-01 0.500 F 0.395 -0.018 21.3 R 0.70 0.27 o 691 0.14 Yes Yes
2006TO O C K 2021-10-02.32134 1.000E-05 00:06:00.500 1.500E-01 0.500 F -0.076 -0.190 +07° 31' 40.90" 1.000E-01 0.500 F 0.395 0.103 21.3 R 0.70 0.27 o 691 0.44 Yes Yes
2006TO O C K 2021-10-02.33198 1.000E-05 00:06:00.900 1.500E-01 0.500 F -0.076 -0.025 +07° 31' 34.40" 1.000E-01 0.500 F 0.395 0.036 21.4 R 0.70 0.37 o 691 0.09 Yes Yes
2021RZ3 O C K 2021-10-02.36612 1.000E-05 23:43:11.320 1.500E-01 0.500 F -0.127 -0.148 +13° 30' 11.30" 1.000E-01 0.500 F 0.204 0.554 21.3 R 0.70 -0.28 o 691 1.15 Yes Yes
2021RZ3 O C K 2021-10-02.38312 1.000E-05 23:43:07.510 1.500E-01 0.500 F -0.127 0.359 +13° 30' 01.10" 1.000E-01 0.500 F 0.204 -0.084 o 691 0.74 Yes No
2021RZ3 O C K 2021-10-02.40012 1.000E-05 23:43:03.760 1.500E-01 0.500 F -0.127 0.641 +13° 29' 51.20" 1.000E-01 0.500 F 0.204 -0.140 21.5 R 0.70 -0.08 o 691 1.32 Yes Yes
2021SR3 O C K 2021-10-02.41891 1.000E-05 01:24:44.910 1.500E-01 0.500 F -0.248 0.041 +06° 48' 27.30" 1.000E-01 0.500 F 0.307 -0.036 21.3 R 0.70 0.01 o 691 0.11 Yes Yes
2021RR14 O C K 2021-10-02.43224 1.000E-05 01:13:49.220 1.500E-01 0.500 F -0.249 0.138 -02° 13' 43.30" 1.000E-01 0.500 F 0.254 -0.431 20.7 R 0.70 -0.18 o 691 0.91 Yes Yes
2021SR3 O C K 2021-10-02.43709 1.000E-05 01:24:45.390 1.500E-01 0.500 F -0.248 0.243 +06° 48' 26.70" 1.000E-01 0.500 F 0.307 -0.104 21.6 R 0.70 0.31 o 691 0.53 Yes Yes
2021RR14 O C K 2021-10-02.45042 1.000E-05 01:13:44.970 1.500E-01 0.500 F -0.249 0.090 -02° 13' 35.90" 1.000E-01 0.500 F 0.254 -0.848 20.7 R 0.70 -0.18 o 691 1.71 Yes Yes
2021SR3 O C K 2021-10-02.45527 1.000E-05 01:24:45.850 1.500E-01 0.500 F -0.248 -0.031 +06° 48' 25.80" 1.000E-01 0.500 F 0.307 -0.439 20.9 R 0.70 -0.38 o 691 0.89 Yes Yes
2021RR14 O C K 2021-10-02.46860 1.000E-05 01:13:40.830 1.500E-01 0.500 F -0.249 0.311 -02° 13' 27.40" 1.000E-01 0.500 F 0.254 -0.211 21.1 R 0.70 0.22 o 691 0.75 Yes Yes
2021RF2 O C K 2021-10-03.14377 1.000E-05 19:25:33.990 1.500E-01 0.500 F -0.061 -0.189 -08° 54' 30.50" 1.000E-01 0.500 F 0.465 0.052 19.9 R 0.70 0.21 o 691 0.42 Yes Yes
2021RP12 O C K 2021-10-03.14947 1.000E-05 20:26:08.100 1.500E-01 0.500 F -0.030 0.133 -06° 45' 35.30" 1.000E-01 0.500 F 0.301 -0.292 18.1 R 0.70 -0.02 o 691 0.70 Yes Yes
2021RF2 O C K 2021-10-03.15327 1.000E-05 19:25:14.600 1.500E-01 0.500 F -0.061 0.244 -08° 53' 44.60" 1.000E-01 0.500 F 0.465 -0.179 19.2 R 0.70 -0.49 o 691 0.77 Yes Yes
2021RP12 O C K 2021-10-03.15896 1.000E-05 20:25:50.880 1.500E-01 0.500 F -0.030 -0.139 -06° 48' 52.60" 1.000E-01 0.500 F 0.301 0.114 17.9 R 0.70 -0.22 o 691 0.39 Yes Yes
2021RF2 O C K 2021-10-03.16276 1.000E-05 19:24:55.230 1.500E-01 0.500 F -0.061 -0.240 -08° 52' 58.10" 1.000E-01 0.500 F 0.465 0.049 o 691 0.54 Yes No
2021SU1 O C K 2021-10-03.17319 1.000E-05 21:36:14.030 1.500E-01 0.500 F -0.089 0.117 -05° 04' 05.00" 1.000E-01 0.500 F 0.282 0.093 21.5 R 0.70 0.48 o 691 0.30 Yes Yes
2021SU1 O C K 2021-10-03.18389 1.000E-05 21:36:14.500 1.500E-01 0.500 F -0.089 -0.165 -05° 04' 13.10" 1.000E-01 0.500 F 0.282 0.001 20.9 R 0.70 -0.12 o 691 0.33 Yes Yes
2021SU1 O C K 2021-10-03.19459 1.000E-05 21:36:14.990 1.500E-01 0.500 F -0.089 -0.177 -05° 04' 21.20" 1.000E-01 0.500 F 0.282 -0.179 o 691 0.51 Yes No
2000YJ66 O C 2021-10-03.20690 1.000E-05 22:17:37.070 1.500E-01 0.500 F -0.123 -0.119 +10° 21' 20.80" 1.000E-01 0.500 F 0.247 0.186 o 691 0.44 Yes No
2021RU12 O C 2021-10-03.20690 1.000E-05 22:17:36.500 1.500E-01 0.500 F -0.123 -0.259 +10° 31' 51.10" 1.000E-01 0.500 F 0.247 -0.052 20.3 V 0.70 0.04 o 691 0.53 Yes Yes
2000YJ66 O C 2021-10-03.22242 1.000E-05 22:17:38.280 1.500E-01 0.500 F -0.123 -0.171 +10° 21' 33.70" 1.000E-01 0.500 F 0.247 0.022 o 691 0.34 Yes No
2021RU12 O C 2021-10-03.22242 1.000E-05 22:17:34.290 1.500E-01 0.500 F -0.123 0.245 +10° 31' 19.20" 1.000E-01 0.500 F 0.247 0.358 20.1 V 0.70 -0.16 o 691 0.87 Yes Yes
2000YJ66 O C 2021-10-03.23621 1.000E-05 22:17:39.380 1.500E-01 0.500 F -0.123 0.122 +10° 21' 45.60" 1.000E-01 0.500 F 0.247 0.354 o 691 0.75 Yes No
2021RU12 O C 2021-10-03.23621 1.000E-05 22:17:32.280 1.500E-01 0.500 F -0.123 -0.006 +10° 30' 50.10" 1.000E-01 0.500 F 0.247 0.037 20.1 V 0.70 -0.16 o 691 0.08 Yes Yes
2021SK5 O C K 2021-10-03.23945 1.000E-05 01:07:13.640 1.500E-01 0.500 F -0.262 -0.466 +15° 01' 23.20" 1.000E-01 0.500 F 0.402 -0.163 o 691 1.01 Yes No
2021SK5 O C K 2021-10-03.24981 1.000E-05 01:07:15.430 1.500E-01 0.500 F -0.262 -0.483 +15° 01' 14.30" 1.000E-01 0.500 F 0.402 0.081 21.7 R 0.70 0.08 o 691 1.01 Yes Yes
2021SK5 O C K 2021-10-03.26017 1.000E-05 01:07:17.120 1.500E-01 0.500 F -0.262 -1.748 +15° 01' 04.70" 1.000E-01 0.500 F 0.402 -0.258 22.0 R 0.70 0.38 o 691 3.45 No Yes

[1-200] [201-400] [401-600] [601-800] [801-1000] [1001-1200] [1201-1400] [1401-1600] [1601-1800] [1801-2000] [2001-2200] [2201-2400] [2401-2600] [2601-2800] [2801-3000] [3001-3200] [3201-3400] [3401-3600] [3601-3800] [3801-4000] [4001-4200] [4201-4400] [4401-4600] [4601-4800] [4801-5000] [5001-5200] [5201-5400] [5401-5600] [5601-5800] [5801-6000] [6001-6200] [6201-6400] [6401-6600] [6601-6800] [6801-7000] [7001-7200] [7201-7400] [7401-7600] [7601-7800] [7801-8000] [8001-8200] [8201-8400] [8401-8600] [8601-8800] [8801-9000] [9001-9200] [9201-9400] [9401-9600] [9601-9800] [9801-10000] [10001-10200] [10201-10400] [10401-10600] [10601-10800] [10801-11000] [11001-11200] [11201-11400] [11401-11600] [11601-11800] [11801-12000] [12001-12200] [12201-12400] [12401-12600] [12601-12800] [12801-13000] [13001-13200] [13201-13400] [13401-13600] [13601-13800] [13801-14000] [14001-14200] [14201-14400] [14401-14600] [14601-14800] [14801-15000] [15001-15200] [15201-15400] [15401-15600] [15601-15800] [15801-16000] [16001-16200] [16201-16400] [16401-16600] [16601-16800] [16801-17000] [17001-17200] [17201-17400] [17401-17600] [17601-17800] [17801-18000] [18001-18200] [18201-18400] [18401-18600] [18601-18800] [18801-19000] [19001-19200] [19201-19400] [19401-19600] [19601-19800] [19801-20000] [20001-20200] [20201-20400] [20401-20600] [20601-20800] [20801-21000] [21001-21200] [21201-21400] [21401-21600] [21601-21800] [21801-22000] [22001-22200] [22201-22400] [22401-22600] [22601-22800] [22801-23000] [23001-23200] [23201-23400] [23401-23600] [23601-23800] [23801-24000] [24001-24200] [24201-24400] [24401-24600] [24601-24800] [24801-25000] [25001-25200] [25201-25400] [25401-25600] [25601-25800] [25801-26000] [26001-26200] [26201-26400] [26401-26600] [26601-26800] [26801-27000] [27001-27200] [27201-27400] [27401-27600] [27601-27800] [27801-28000] [28001-28200] [28201-28400] [28401-28600] [28601-28800] [28801-29000] [29001-29200] [29201-29400] [29401-29600] [29601-29800] [29801-30000] [30001-30200] [30201-30400] [30401-30600] [30601-30800] [30801-31000] [31001-31200] [31201-31400] [31401-31600] [31601-31800] [31801-32000] [32001-32200] [32201-32400] [32401-32600] [32601-32800] [32801-33000] [33001-33200] [33201-33400] [33401-33600] [33601-33800] [33801-34000] [34001-34200] [34201-34400] [34401-34600] [34601-34800] [34801-35000] [35001-35200] [35201-35400] [35401-35600] [35601-35800] [35801-36000] [36001-36200] [36201-36400] [36401-36600] [36601-36800] [36801-37000] [37001-37200] [37201-37400] [37401-37600] [37601-37800] [37801-38000] [38001-38200] [38201-38400] [38401-38600] [38601-38800] [38801-39000] [39001-39200] [39201-39400] [39401-39600] [39601-39800] [39801-40000] [40001-40200] [40201-40400] [40401-40600] [40601-40800] [40801-41000] [41001-41200] [41201-41400] [41401-41600] [41601-41800] [41801-42000] [42001-42200] [42201-42400] [42401-42600] [42601-42800] [42801-43000] [43001-43200] [43201-43400] [43401-43600] [43601-43800] [43801-44000] [44001-44200] [44201-44400] [44401-44600] [44601-44800] [44801-45000] [45001-45200] [45201-45400] [45401-45600] [45601-45800] [45801-46000] [46001-46200] [46201-46400] [46401-46600] [46601-46800] [46801-47000] [47001-47200] [47201-47400] [47401-47600] [47601-47800] [47801-48000] [48001-48200] [48201-48400] [48401-48600] [48601-48800] [48801-49000] [49001-49200] [49201-49400] [49401-49600] [49601-49800] [49801-50000] [50001-50200] [50201-50400] [50401-50600] [50601-50741]